This is the latest recevied weather packets stored in our database for station/object AD8PA-13. If no packets are shown the sender has not sent any weather packets the latest 10 day(s).
| Time | Temp. | Humidity | Pressure | Rain* | Wind** | Luminosity | Snow |
|---|---|---|---|---|---|---|---|
| 1777068644 | 18.33° C | 94% | 1007.6 hPa | 0 mm | - | - | - |
| 1777067738 | 17.78° C | 94% | 1007.4 hPa | 0 mm | - | - | - |
| 1777066833 | 18.33° C | 93% | 1007.5 hPa | 3.05 mm | - | - | - |
| 1777065930 | 18.33° C | 90% | 1007.4 hPa | 4.83 mm | - | - | - |
| 1777065028 | 18.33° C | 88% | 1007.5 hPa | 0 mm | - | - | - |
| 1777064123 | 18.89° C | 87% | 1006.9 hPa | 3.05 mm | - | - | - |
| 1777063220 | 22.78° C | 65% | 1006.2 hPa | 0 mm | - | - | - |
| 1777062317 | 23.89° C | 62% | 1005.9 hPa | 0 mm | - | - | - |
| 1777061413 | 24.44° C | 63% | 1005.8 hPa | 0 mm | - | - | - |
| 1777060510 | 25° C | 60% | 1006 hPa | 0 mm | - | - | - |
| 1777059611 | 25.56° C | 58% | 1006.1 hPa | 0 mm | - | - | - |
| 1777058709 | 25.56° C | 60% | 1006.2 hPa | 0 mm | - | - | - |
| 1777057809 | 25° C | 61% | 1006.7 hPa | 0 mm | - | - | - |
| 1777056908 | 24.44° C | 62% | 1006.7 hPa | 0 mm | - | - | - |
| 1777056005 | 25.56° C | 62% | 1006.9 hPa | 0 mm | - | - | - |
| 1777055102 | 26.11° C | 60% | 1007.1 hPa | 0 mm | - | - | - |
| 1777054198 | 25.56° C | 58% | 1007.5 hPa | 0 mm | - | - | - |
| 1777053296 | 25.56° C | 60% | 1007.5 hPa | 0 mm | - | - | - |
| 1777052395 | 25° C | 60% | 1007.4 hPa | 0 mm | - | - | - |
| 1777051491 | 25° C | 63% | 1007.4 hPa | 0 mm | - | - | - |
| 1777050591 | 23.33° C | 66% | 1007.7 hPa | 0 mm | - | - | - |
| 1777049690 | 22.22° C | 74% | 1007.9 hPa | 0 mm | - | - | - |
| 1777048786 | 20.56° C | 81% | 1008.4 hPa | 0 mm | - | - | - |
| 1777047883 | 23.33° C | 64% | 1008.8 hPa | 0 mm | - | - | - |
| 1777046983 | 23.33° C | 61% | 1008.4 hPa | 0 mm | - | - | - |
* Rain latest hour (hover to see other rain measurements)
** Current wind speed in m/s (hover to see current wind gust speed)